x

West Gulf - 207 Nm East Of Brownsville, Tx (42002) Wave Buoy

5:50pm - Mon 30th Mar 2015 All times are CDT. -5 hours from GMT.

  • Sig Wave height 4.3ft
  • Swell Direction
  • Peak Period 7s
  • Average Period 5s
  • Wind
    11mph, 13mph gusts
  • Sea Temp 74°f
  • Air Temp 75°f
  • Sea Pressure 1020.3mb
  • West Gulf - 207 Nm East Of Brownsville, Tx
  • West Gulf - 207 Nm East Of Brownsville, Tx

More Historic Weather Station data

Upgrade to MSW Pro to gain access to the past 30 days of data for over 8000 Wavebouys and Weather Stations around the globe.

Join Pro

Comparision Forecast

View Surf forecast
   
Mon 03/30 5:50pm 4.5ft 7s 5s 11 13 mph 1020.3mb 74f 75f
4:50pm 4ft 7s 5s 9 11 mph 1020.6mb 74f 75f
3:50pm 4ft 7s 5s 9 11 mph 1021.2mb 74f 74f
2:50pm 4ft 6s 5s 9
mph
1021.8mb 74f 74f
1:50pm 3.5ft 6s 5s 9 11 mph 1022.6mb 74f 74f
12:50pm 3.5ft 7s 5s 9
mph
1023.4mb 73f 74f
11:50am 3.5ft 6s 5s 9 11 mph 1023.5mb 73f 74f
10:50am 3.5ft 6s 5s 11
mph
1023.3mb 73f 74f
9:50am 3.5ft 6s 5s 9 11 mph 1022.9mb 73f 74f
8:50am 4ft 6s 5s 13
mph
1022.2mb 73f 74f
7:50am 4ft 5s 5s 13 16 mph 1021.8mb 73f 74f
6:50am 3.5ft 6s 4s 16 18 mph 1021mb 73f 73f
5:50am 3.5ft 5s 4s 18 20 mph 1020.4mb 73f 73f
4:50am 3.5ft 5s 4s 16 20 mph 1020.5mb 73f 73f
3:50am 3.5ft 5s 4s 18 20 mph 1020.8mb 73f 73f
2:50am 3.5ft 5s 4s 18 22 mph 1021.1mb 73f 73f
1:50am 3.5ft 5s 4s 13 18 mph 1021.8mb 73f 73f
12:50am 3.5ft 5s 4s 18 22 mph 1022mb 73f 74f
Sun 03/29 11:50pm 3ft 5s 4s 18 20 mph 1022.1mb 73f 74f
10:50pm 3ft 5s 4s 16 20 mph 1022.5mb 73f 73f
9:50pm 3ft 5s 4s 18 20 mph 1022mb 73f 73f
8:50pm 3ft 5s 4s 18 22 mph 1021.2mb 73f 74f
7:50pm 3ft 5s 4s 16 20 mph 1021.2mb 73f 73f
6:50pm 2.5ft 5s 4s 13 18 mph 1021.4mb 73f 74f
5:50pm 3ft 4s 4s 13 16 mph 1021.2mb 73f 74f
4:50pm 3ft 5s 4s 16 18 mph 1021.3mb 73f 74f
3:50pm 3ft 5s 4s 16 20 mph 1021.7mb 73f 74f
2:50pm 3ft 5s 4s 16 18 mph 1022.3mb 73f 74f
1:50pm 3ft 5s 4s 16 18 mph 1023.2mb 73f 74f
12:50pm 3ft 5s 4s 16 18 mph 1023.9mb 73f 74f
11:50am 3ft 5s 4s 16 18 mph 1024.3mb 73f 74f
10:50am 3ft 5s 4s 13 16 mph 1024.2mb 73f 74f
9:50am 3ft 5s 4s 13 18 mph 1023.8mb 73f 73f
8:50am 3ft 5s 4s 16 20 mph 1023mb 72f 73f
7:50am 3ft 4s 4s 18 22 mph 1022.2mb 72f 73f
6:50am 3ft 4s 4s 18 20 mph 1021.3mb 72f 73f
5:50am 2.5ft 4s 4s 16 20 mph 1021mb 72f 73f
4:50am 2.5ft 4s 4s 16 18 mph 1021.1mb 72f 73f
3:50am 2ft 3s 3s 16 20 mph 1021.1mb 72f 73f
2:50am 2ft 3s 3s 16 18 mph 1021.3mb 73f 73f
1:50am 1.6ft 3s 3s 16 20 mph 1021.8mb 73f 73f
12:50am 1.3ft 7s 3s 16 18 mph 1022.1mb 72f 73f
Sat 03/28 11:50pm 1.3ft 7s 4s 13 16 mph 1022.3mb 72f 73f
10:50pm 1.3ft 6s 4s 11 13 mph 1022.5mb 73f 72f
9:50pm 1.3ft 6s 4s 9 11 mph 1022.6mb 73f 72f
8:50pm 1.3ft 6s 4s 11 13 mph 1022.2mb 73f 72f
7:50pm 1.3ft 7s 4s 9 11 mph 1021.9mb 73f 72f
6:50pm 1.3ft 5s 4s 9
mph
1021.7mb 73f 72f
5:50pm 1.3ft 5s 4s 9 11 mph 1021.4mb 73f 72f
4:50pm 1.3ft 7s 4s 9
mph
1021.3mb 73f 72f
3:50pm 1.3ft 5s 4s 7 9 mph 1021.5mb 73f 72f
2:50pm 1.3ft 5s 4s 7 9 mph 1022mb 73f 72f
1:50pm 1.6ft 5s 4s 7 9 mph 1022.5mb 73f 72f
12:50pm 1.6ft 5s 5s 9 11 mph 1023.1mb 73f 71f
11:50am 1.6ft 5s 5s 9
mph
1023.7mb 72f 71f
10:50am 2ft 6s 5s 7 9 mph 1023.7mb 72f 71f
9:50am 2ft 6s 5s 7
mph
1023.5mb 72f 71f
8:50am 2ft 6s 5s 4 7 mph 1023.2mb 72f 71f
7:50am 2.5ft 6s 5s 7
mph
1022.5mb 72f 71f
6:50am 2.5ft 6s 5s 7
mph
1022.1mb 72f 70f
5:50am 3ft 6s 5s 7 9 mph 1021.7mb 72f 70f
4:50am 3.5ft 6s 5s 4 7 mph 1021.1mb 72f 70f
3:50am 3.5ft 7s 5s 2
mph
1021.3mb 72f 70f
2:50am 4ft 6s 5s 7 9 mph 1021.3mb 72f 71f
1:50am 3.5ft 7s 5s 9 11 mph 1021.6mb 73f 70f
12:50am 4.5ft 7s 5s 9 13 mph 1022mb 73f 70f
Fri 03/27 11:50pm 5ft 7s 6s 9 13 mph 1022mb 73f 70f
10:50pm 5ft 8s 5s 9 11 mph 1022.3mb 73f 69f
9:50pm 5.5ft 8s 5s 11 13 mph 1021.9mb 73f 69f
8:50pm 5ft 8s 6s 13
mph
1021.2mb 73f 69f
7:50pm 5.5ft 8s 6s 16 20 mph 1020.4mb 73f 68f
6:50pm 6ft 8s 6s 16 20 mph 1020.3mb 73f 69f
5:50pm 5.5ft 8s 6s 18 20 mph 1020.1mb 73f 69f
4:50pm 6ft 8s 6s 18 20 mph 1019.8mb 73f 68f
3:50pm 6ft 8s 6s 18 25 mph 1019.8mb 73f 68f
2:50pm 7ft 8s 6s 16 22 mph 1020.5mb 73f 68f
1:50pm 7.5ft 8s 6s 18 22 mph 1020.7mb 73f 68f
12:50pm 8.5ft 9s 7s 18 27 mph 1021.2mb 73f 68f
11:50am 8.5ft 8s 6s 20 25 mph 1021.1mb 73f 67f
10:50am 8.5ft 8s 6s 20 25 mph 1020.7mb 73f 67f
9:50am 8.5ft 8s 6s 20 27 mph 1020mb 73f 67f
8:50am 10.5ft 8s 6s 27 34 mph 1019.1mb 72f 67f
7:50am 10ft 8s 6s 31 36 mph 1018.3mb 72f 67f
6:50am 9.5ft 8s 6s 29 38 mph 1017.7mb 73f 67f
5:50am 9ft 8s 6s 29 34 mph 1017mb 73f 68f
4:50am 7ft 8s 6s 25 29 mph 1016.6mb 73f 69f
3:50am 8ft 8s 6s 27 31 mph 1016.2mb 73f 70f
2:50am 8ft 7s 6s 25 31 mph 1015.4mb 73f 70f
1:50am 7ft 7s 6s 22 27 mph 1015.6mb 73f 71f
12:50am 6ft 6s 5s 22 27 mph 1015.2mb 73f 71f